sensor_id;sensor_type;location;lat;lon;timestamp;temperature;humidity
22145;DHT22;11238;48.730;11.566;2023-02-01T00:01:37;3.80;99.90
22145;DHT22;11238;48.730;11.566;2023-02-01T00:04:03;3.80;99.90
22145;DHT22;11238;48.730;11.566;2023-02-01T00:06:29;3.70;99.90
22145;DHT22;11238;48.730;11.566;2023-02-01T00:08:56;3.70;99.90
22145;DHT22;11238;48.730;11.566;2023-02-01T00:11:22;3.70;99.90
22145;DHT22;11238;48.730;11.566;2023-02-01T00:13:49;3.60;99.90
22145;DHT22;11238;48.730;11.566;2023-02-01T00:16:20;3.60;99.90
22145;DHT22;11238;48.730;11.566;2023-02-01T00:18:48;3.60;99.90
22145;DHT22;11238;48.730;11.566;2023-02-01T00:21:18;3.60;99.90
22145;DHT22;11238;48.730;11.566;2023-02-01T00:23:45;3.60;99.90
22145;DHT22;11238;48.730;11.566;2023-02-01T00:26:30;3.60;99.90
22145;DHT22;11238;48.730;11.566;2023-02-01T00:28:57;3.60;99.90
22145;DHT22;11238;48.730;11.566;2023-02-01T00:31:22;3.60;99.90
22145;DHT22;11238;48.730;11.566;2023-02-01T00:33:49;3.60;99.90
22145;DHT22;11238;48.730;11.566;2023-02-01T00:36:15;3.60;99.90
22145;DHT22;11238;48.730;11.566;2023-02-01T00:38:41;3.60;99.90
22145;DHT22;11238;48.730;11.566;2023-02-01T00:41:11;3.60;99.90
22145;DHT22;11238;48.730;11.566;2023-02-01T00:43:38;3.60;99.90
22145;DHT22;11238;48.730;11.566;2023-02-01T00:46:05;3.60;99.90
22145;DHT22;11238;48.730;11.566;2023-02-01T00:48:31;3.60;99.90
22145;DHT22;11238;48.730;11.566;2023-02-01T00:51:06;3.60;99.90
22145;DHT22;11238;48.730;11.566;2023-02-01T00:53:32;3.60;99.90
22145;DHT22;11238;48.730;11.566;2023-02-01T00:55:59;3.70;99.90
22145;DHT22;11238;48.730;11.566;2023-02-01T00:58:25;3.70;99.90
22145;DHT22;11238;48.730;11.566;2023-02-01T01:01:05;3.70;99.90
22145;DHT22;11238;48.730;11.566;2023-02-01T01:03:32;3.80;99.90
22145;DHT22;11238;48.730;11.566;2023-02-01T01:06:00;3.70;99.90
22145;DHT22;11238;48.730;11.566;2023-02-01T01:08:27;3.80;99.90
22145;DHT22;11238;48.730;11.566;2023-02-01T01:10:53;3.80;99.90
22145;DHT22;11238;48.730;11.566;2023-02-01T01:13:19;3.70;99.90
22145;DHT22;11238;48.730;11.566;2023-02-01T01:15:45;3.70;99.90
22145;DHT22;11238;48.730;11.566;2023-02-01T01:18:10;3.70;99.90
22145;DHT22;11238;48.730;11.566;2023-02-01T01:20:38;3.70;99.90
22145;DHT22;11238;48.730;11.566;2023-02-01T01:23:05;3.70;99.90
22145;DHT22;11238;48.730;11.566;2023-02-01T01:25:31;3.70;99.90
22145;DHT22;11238;48.730;11.566;2023-02-01T01:27:57;3.70;99.90
22145;DHT22;11238;48.730;11.566;2023-02-01T01:30:23;3.70;99.90
22145;DHT22;11238;48.730;11.566;2023-02-01T01:32:49;3.70;99.90
22145;DHT22;11238;48.730;11.566;2023-02-01T01:35:15;3.60;99.90
22145;DHT22;11238;48.730;11.566;2023-02-01T01:37:40;3.60;99.90
22145;DHT22;11238;48.730;11.566;2023-02-01T01:40:08;3.70;99.90
22145;DHT22;11238;48.730;11.566;2023-02-01T01:42:42;3.60;99.90
22145;DHT22;11238;48.730;11.566;2023-02-01T01:48:04;3.60;99.90
22145;DHT22;11238;48.730;11.566;2023-02-01T01:53:05;3.60;99.90
22145;DHT22;11238;48.730;11.566;2023-02-01T01:55:36;3.60;99.90
22145;DHT22;11238;48.730;11.566;2023-02-01T01:58:12;3.60;99.90
22145;DHT22;11238;48.730;11.566;2023-02-01T02:00:39;3.60;99.90
22145;DHT22;11238;48.730;11.566;2023-02-01T02:03:26;3.60;99.90
22145;DHT22;11238;48.730;11.566;2023-02-01T02:05:55;3.60;99.90
22145;DHT22;11238;48.730;11.566;2023-02-01T02:08:24;3.60;99.90
22145;DHT22;11238;48.730;11.566;2023-02-01T02:10:50;3.60;99.90
22145;DHT22;11238;48.730;11.566;2023-02-01T02:13:32;3.50;99.90
22145;DHT22;11238;48.730;11.566;2023-02-01T02:21:56;3.60;99.90
22145;DHT22;11238;48.730;11.566;2023-02-01T02:36:06;3.60;99.90
22145;DHT22;11238;48.730;11.566;2023-02-01T02:38:47;3.60;99.90
22145;DHT22;11238;48.730;11.566;2023-02-01T02:44:20;3.70;99.90
22145;DHT22;11238;48.730;11.566;2023-02-01T02:47:12;3.70;99.90
22145;DHT22;11238;48.730;11.566;2023-02-01T02:50:09;3.70;99.90
22145;DHT22;11238;48.730;11.566;2023-02-01T02:53:14;3.70;99.90
22145;DHT22;11238;48.730;11.566;2023-02-01T02:56:10;3.60;99.90
22145;DHT22;11238;48.730;11.566;2023-02-01T02:58:56;3.60;99.90
22145;DHT22;11238;48.730;11.566;2023-02-01T03:01:43;3.60;99.90
22145;DHT22;11238;48.730;11.566;2023-02-01T03:04:28;3.60;99.90
22145;DHT22;11238;48.730;11.566;2023-02-01T03:06:54;3.60;99.90
22145;DHT22;11238;48.730;11.566;2023-02-01T03:09:31;3.60;99.90
22145;DHT22;11238;48.730;11.566;2023-02-01T03:12:03;3.50;99.90
22145;DHT22;11238;48.730;11.566;2023-02-01T03:14:53;3.60;99.90
22145;DHT22;11238;48.730;11.566;2023-02-01T03:17:27;3.50;99.90
22145;DHT22;11238;48.730;11.566;2023-02-01T03:20:00;3.50;99.90
22145;DHT22;11238;48.730;11.566;2023-02-01T03:22:28;3.50;99.90
22145;DHT22;11238;48.730;11.566;2023-02-01T03:25:21;3.50;99.90
22145;DHT22;11238;48.730;11.566;2023-02-01T03:27:53;3.50;99.90
22145;DHT22;11238;48.730;11.566;2023-02-01T03:30:40;3.50;99.90
22145;DHT22;11238;48.730;11.566;2023-02-01T03:33:14;3.50;99.90
22145;DHT22;11238;48.730;11.566;2023-02-01T03:49:36;3.50;99.90
22145;DHT22;11238;48.730;11.566;2023-02-01T03:52:06;3.50;99.90
22145;DHT22;11238;48.730;11.566;2023-02-01T03:54:36;3.50;99.90
22145;DHT22;11238;48.730;11.566;2023-02-01T03:57:07;3.50;99.90
22145;DHT22;11238;48.730;11.566;2023-02-01T03:59:34;3.50;99.90
22145;DHT22;11238;48.730;11.566;2023-02-01T04:02:02;3.50;99.90
22145;DHT22;11238;48.730;11.566;2023-02-01T04:04:28;3.60;99.90
22145;DHT22;11238;48.730;11.566;2023-02-01T04:06:55;3.60;99.90
22145;DHT22;11238;48.730;11.566;2023-02-01T04:09:21;3.60;99.90
22145;DHT22;11238;48.730;11.566;2023-02-01T04:11:46;3.60;99.90
22145;DHT22;11238;48.730;11.566;2023-02-01T04:14:12;3.60;99.90
22145;DHT22;11238;48.730;11.566;2023-02-01T04:16:38;3.60;99.90
22145;DHT22;11238;48.730;11.566;2023-02-01T04:19:04;3.50;99.90
22145;DHT22;11238;48.730;11.566;2023-02-01T04:21:30;3.60;99.90
22145;DHT22;11238;48.730;11.566;2023-02-01T04:23:55;3.60;99.90
22145;DHT22;11238;48.730;11.566;2023-02-01T04:26:21;3.60;99.90
22145;DHT22;11238;48.730;11.566;2023-02-01T04:28:47;3.60;99.90
22145;DHT22;11238;48.730;11.566;2023-02-01T04:31:15;3.60;99.90
22145;DHT22;11238;48.730;11.566;2023-02-01T04:33:41;3.70;99.90
22145;DHT22;11238;48.730;11.566;2023-02-01T04:36:07;3.60;99.90
22145;DHT22;11238;48.730;11.566;2023-02-01T04:38:32;3.70;99.90
22145;DHT22;11238;48.730;11.566;2023-02-01T04:40:59;3.70;99.90
22145;DHT22;11238;48.730;11.566;2023-02-01T04:43:24;3.70;99.90
22145;DHT22;11238;48.730;11.566;2023-02-01T04:45:51;3.80;99.90
22145;DHT22;11238;48.730;11.566;2023-02-01T04:48:18;3.80;99.90
22145;DHT22;11238;48.730;11.566;2023-02-01T04:50:45;3.80;99.90
22145;DHT22;11238;48.730;11.566;2023-02-01T04:53:14;3.80;99.90
22145;DHT22;11238;48.730;11.566;2023-02-01T04:55:41;3.80;99.90
22145;DHT22;11238;48.730;11.566;2023-02-01T04:58:07;3.80;99.90
22145;DHT22;11238;48.730;11.566;2023-02-01T05:00:33;3.70;99.90
22145;DHT22;11238;48.730;11.566;2023-02-01T05:02:59;3.70;99.90
22145;DHT22;11238;48.730;11.566;2023-02-01T05:05:26;3.60;99.90
22145;DHT22;11238;48.730;11.566;2023-02-01T05:07:52;3.60;99.90
22145;DHT22;11238;48.730;11.566;2023-02-01T05:10:18;3.60;99.90
22145;DHT22;11238;48.730;11.566;2023-02-01T05:12:44;3.50;99.90
22145;DHT22;11238;48.730;11.566;2023-02-01T05:15:30;3.50;99.90
22145;DHT22;11238;48.730;11.566;2023-02-01T05:17:57;3.50;99.90
22145;DHT22;11238;48.730;11.566;2023-02-01T05:20:23;3.60;99.90
22145;DHT22;11238;48.730;11.566;2023-02-01T05:22:50;3.60;99.90
22145;DHT22;11238;48.730;11.566;2023-02-01T05:25:15;3.60;99.90
22145;DHT22;11238;48.730;11.566;2023-02-01T05:27:42;3.60;99.90
22145;DHT22;11238;48.730;11.566;2023-02-01T05:30:08;3.60;99.90
22145;DHT22;11238;48.730;11.566;2023-02-01T05:32:35;3.70;99.90
22145;DHT22;11238;48.730;11.566;2023-02-01T05:35:00;3.70;99.90
22145;DHT22;11238;48.730;11.566;2023-02-01T05:37:27;3.70;99.90
22145;DHT22;11238;48.730;11.566;2023-02-01T05:39:53;3.60;99.90
22145;DHT22;11238;48.730;11.566;2023-02-01T05:42:19;3.60;99.90
22145;DHT22;11238;48.730;11.566;2023-02-01T05:44:45;3.60;99.90
22145;DHT22;11238;48.730;11.566;2023-02-01T05:47:11;3.60;99.90
22145;DHT22;11238;48.730;11.566;2023-02-01T05:49:37;3.70;99.90
22145;DHT22;11238;48.730;11.566;2023-02-01T05:52:04;3.70;99.90
22145;DHT22;11238;48.730;11.566;2023-02-01T05:54:30;3.70;99.90
22145;DHT22;11238;48.730;11.566;2023-02-01T05:56:55;3.80;99.90
22145;DHT22;11238;48.730;11.566;2023-02-01T05:59:21;3.70;99.90
22145;DHT22;11238;48.730;11.566;2023-02-01T06:01:47;3.70;99.90
22145;DHT22;11238;48.730;11.566;2023-02-01T06:04:13;3.80;99.90
22145;DHT22;11238;48.730;11.566;2023-02-01T06:06:39;3.80;99.90
22145;DHT22;11238;48.730;11.566;2023-02-01T06:09:05;3.80;99.90
22145;DHT22;11238;48.730;11.566;2023-02-01T06:11:31;3.90;99.90
22145;DHT22;11238;48.730;11.566;2023-02-01T06:13:57;3.90;99.90
22145;DHT22;11238;48.730;11.566;2023-02-01T06:16:23;3.90;99.90
22145;DHT22;11238;48.730;11.566;2023-02-01T06:18:49;3.90;99.90
22145;DHT22;11238;48.730;11.566;2023-02-01T06:21:15;3.90;99.90
22145;DHT22;11238;48.730;11.566;2023-02-01T06:23:53;3.90;99.90
22145;DHT22;11238;48.730;11.566;2023-02-01T06:26:19;3.90;99.90
22145;DHT22;11238;48.730;11.566;2023-02-01T06:28:45;3.90;99.90
22145;DHT22;11238;48.730;11.566;2023-02-01T06:31:11;3.90;99.90
22145;DHT22;11238;48.730;11.566;2023-02-01T06:33:39;3.90;99.90
22145;DHT22;11238;48.730;11.566;2023-02-01T06:36:07;4.00;99.90
22145;DHT22;11238;48.730;11.566;2023-02-01T06:38:34;4.00;99.90
22145;DHT22;11238;48.730;11.566;2023-02-01T06:41:01;4.00;99.90
22145;DHT22;11238;48.730;11.566;2023-02-01T06:43:27;3.90;99.90
22145;DHT22;11238;48.730;11.566;2023-02-01T06:45:58;3.90;99.90
22145;DHT22;11238;48.730;11.566;2023-02-01T06:48:25;3.90;99.90
22145;DHT22;11238;48.730;11.566;2023-02-01T06:50:51;3.90;99.90
22145;DHT22;11238;48.730;11.566;2023-02-01T06:53:16;3.90;99.90
22145;DHT22;11238;48.730;11.566;2023-02-01T06:55:54;3.90;99.90
22145;DHT22;11238;48.730;11.566;2023-02-01T06:58:21;3.90;99.90
22145;DHT22;11238;48.730;11.566;2023-02-01T07:00:47;3.90;99.90
22145;DHT22;11238;48.730;11.566;2023-02-01T07:03:13;4.00;99.90
22145;DHT22;11238;48.730;11.566;2023-02-01T07:05:39;4.00;99.90
22145;DHT22;11238;48.730;11.566;2023-02-01T07:08:05;3.90;99.90
22145;DHT22;11238;48.730;11.566;2023-02-01T07:10:31;3.90;99.90
22145;DHT22;11238;48.730;11.566;2023-02-01T07:12:57;4.00;99.90
22145;DHT22;11238;48.730;11.566;2023-02-01T07:15:23;4.10;99.90
22145;DHT22;11238;48.730;11.566;2023-02-01T07:17:50;4.10;99.90
22145;DHT22;11238;48.730;11.566;2023-02-01T07:20:16;4.10;99.90
22145;DHT22;11238;48.730;11.566;2023-02-01T07:22:42;4.10;99.90
22145;DHT22;11238;48.730;11.566;2023-02-01T07:25:08;4.20;99.90
22145;DHT22;11238;48.730;11.566;2023-02-01T07:27:34;4.10;99.90
22145;DHT22;11238;48.730;11.566;2023-02-01T07:30:00;4.20;99.90
22145;DHT22;11238;48.730;11.566;2023-02-01T07:32:29;4.20;99.90
22145;DHT22;11238;48.730;11.566;2023-02-01T07:34:56;4.20;99.90
22145;DHT22;11238;48.730;11.566;2023-02-01T07:37:22;4.20;99.90
22145;DHT22;11238;48.730;11.566;2023-02-01T07:39:51;4.20;99.90
22145;DHT22;11238;48.730;11.566;2023-02-01T07:42:20;4.20;99.90
22145;DHT22;11238;48.730;11.566;2023-02-01T07:44:46;4.10;99.90
22145;DHT22;11238;48.730;11.566;2023-02-01T07:47:12;4.10;99.90
22145;DHT22;11238;48.730;11.566;2023-02-01T07:49:38;4.10;99.90
22145;DHT22;11238;48.730;11.566;2023-02-01T07:52:04;4.20;99.90
22145;DHT22;11238;48.730;11.566;2023-02-01T07:54:30;4.20;99.90
22145;DHT22;11238;48.730;11.566;2023-02-01T07:56:56;4.10;99.90
22145;DHT22;11238;48.730;11.566;2023-02-01T07:59:22;4.10;99.90
22145;DHT22;11238;48.730;11.566;2023-02-01T08:01:47;4.10;99.90
22145;DHT22;11238;48.730;11.566;2023-02-01T08:04:14;4.00;99.90
22145;DHT22;11238;48.730;11.566;2023-02-01T08:06:39;4.00;99.90
22145;DHT22;11238;48.730;11.566;2023-02-01T08:09:07;4.00;99.90
22145;DHT22;11238;48.730;11.566;2023-02-01T08:11:36;4.00;99.90
22145;DHT22;11238;48.730;11.566;2023-02-01T08:14:04;4.10;99.90
22145;DHT22;11238;48.730;11.566;2023-02-01T08:16:30;4.00;99.90
22145;DHT22;11238;48.730;11.566;2023-02-01T08:18:56;4.10;99.90
22145;DHT22;11238;48.730;11.566;2023-02-01T08:21:27;4.10;99.90
22145;DHT22;11238;48.730;11.566;2023-02-01T08:24:07;4.10;99.90
22145;DHT22;11238;48.730;11.566;2023-02-01T08:26:55;4.20;99.90
22145;DHT22;11238;48.730;11.566;2023-02-01T08:29:20;4.20;99.90
22145;DHT22;11238;48.730;11.566;2023-02-01T08:31:46;4.20;99.90
22145;DHT22;11238;48.730;11.566;2023-02-01T08:34:12;4.20;99.90
22145;DHT22;11238;48.730;11.566;2023-02-01T08:36:38;4.10;99.90
22145;DHT22;11238;48.730;11.566;2023-02-01T08:39:04;4.10;99.90
22145;DHT22;11238;48.730;11.566;2023-02-01T08:41:35;4.10;99.90
22145;DHT22;11238;48.730;11.566;2023-02-01T08:44:01;4.10;99.90
22145;DHT22;11238;48.730;11.566;2023-02-01T08:46:27;4.10;99.90
22145;DHT22;11238;48.730;11.566;2023-02-01T08:48:53;4.10;99.90
22145;DHT22;11238;48.730;11.566;2023-02-01T08:51:20;4.10;99.90
22145;DHT22;11238;48.730;11.566;2023-02-01T08:53:47;4.10;99.90
22145;DHT22;11238;48.730;11.566;2023-02-01T08:56:14;4.10;99.90
22145;DHT22;11238;48.730;11.566;2023-02-01T08:58:41;4.10;99.90
22145;DHT22;11238;48.730;11.566;2023-02-01T09:01:12;4.10;99.90
22145;DHT22;11238;48.730;11.566;2023-02-01T09:03:41;4.10;99.90
22145;DHT22;11238;48.730;11.566;2023-02-01T09:06:09;4.00;99.90
22145;DHT22;11238;48.730;11.566;2023-02-01T09:08:36;3.90;99.90
22145;DHT22;11238;48.730;11.566;2023-02-01T09:11:07;4.00;99.90
22145;DHT22;11238;48.730;11.566;2023-02-01T09:13:33;4.00;99.90
22145;DHT22;11238;48.730;11.566;2023-02-01T09:15:59;4.10;99.90
22145;DHT22;11238;48.730;11.566;2023-02-01T09:18:26;4.10;99.90
22145;DHT22;11238;48.730;11.566;2023-02-01T09:20:52;4.20;99.90
22145;DHT22;11238;48.730;11.566;2023-02-01T09:23:18;4.20;99.90
22145;DHT22;11238;48.730;11.566;2023-02-01T09:25:46;4.30;99.90
22145;DHT22;11238;48.730;11.566;2023-02-01T09:28:12;4.40;99.90
22145;DHT22;11238;48.730;11.566;2023-02-01T09:30:38;4.40;99.90
22145;DHT22;11238;48.730;11.566;2023-02-01T09:33:04;4.40;99.90
22145;DHT22;11238;48.730;11.566;2023-02-01T09:35:30;4.40;99.90
22145;DHT22;11238;48.730;11.566;2023-02-01T09:37:56;4.40;99.90
22145;DHT22;11238;48.730;11.566;2023-02-01T09:40:22;4.40;99.90
22145;DHT22;11238;48.730;11.566;2023-02-01T09:43:15;4.40;99.90
22145;DHT22;11238;48.730;11.566;2023-02-01T09:46:17;4.50;99.90
22145;DHT22;11238;48.730;11.566;2023-02-01T09:48:45;4.50;99.90
22145;DHT22;11238;48.730;11.566;2023-02-01T09:51:16;4.50;99.90
22145;DHT22;11238;48.730;11.566;2023-02-01T09:53:46;4.40;99.90
22145;DHT22;11238;48.730;11.566;2023-02-01T09:56:43;4.40;99.90
22145;DHT22;11238;48.730;11.566;2023-02-01T10:01:49;4.50;99.90
22145;DHT22;11238;48.730;11.566;2023-02-01T10:04:16;4.50;99.90
22145;DHT22;11238;48.730;11.566;2023-02-01T10:07:07;4.50;99.90
22145;DHT22;11238;48.730;11.566;2023-02-01T10:20:56;4.50;99.90
22145;DHT22;11238;48.730;11.566;2023-02-01T10:23:45;4.20;99.90
22145;DHT22;11238;48.730;11.566;2023-02-01T10:26:23;4.00;99.90
22145;DHT22;11238;48.730;11.566;2023-02-01T10:29:01;4.10;99.90
22145;DHT22;11238;48.730;11.566;2023-02-01T10:31:34;4.10;99.90
22145;DHT22;11238;48.730;11.566;2023-02-01T10:34:14;4.10;99.90
22145;DHT22;11238;48.730;11.566;2023-02-01T10:37:28;4.00;99.90
22145;DHT22;11238;48.730;11.566;2023-02-01T10:39:28;4.00;99.90
22145;DHT22;11238;48.730;11.566;2023-02-01T10:41:55;4.00;99.90
22145;DHT22;11238;48.730;11.566;2023-02-01T10:44:27;4.00;99.90
22145;DHT22;11238;48.730;11.566;2023-02-01T10:46:54;4.00;99.90
22145;DHT22;11238;48.730;11.566;2023-02-01T10:49:29;4.10;99.90
22145;DHT22;11238;48.730;11.566;2023-02-01T10:52:16;4.10;99.90
22145;DHT22;11238;48.730;11.566;2023-02-01T10:54:42;4.10;99.90
22145;DHT22;11238;48.730;11.566;2023-02-01T10:57:10;4.10;99.90
22145;DHT22;11238;48.730;11.566;2023-02-01T10:59:36;4.10;99.90
22145;DHT22;11238;48.730;11.566;2023-02-01T11:02:54;4.10;99.90
22145;DHT22;11238;48.730;11.566;2023-02-01T11:05:16;4.20;99.90
22145;DHT22;11238;48.730;11.566;2023-02-01T11:07:50;4.20;99.90
22145;DHT22;11238;48.730;11.566;2023-02-01T11:10:38;4.20;99.90
22145;DHT22;11238;48.730;11.566;2023-02-01T11:13:05;4.20;99.90
22145;DHT22;11238;48.730;11.566;2023-02-01T11:15:31;4.30;99.90
22145;DHT22;11238;48.730;11.566;2023-02-01T11:18:14;4.20;99.90
22145;DHT22;11238;48.730;11.566;2023-02-01T11:20:41;4.20;99.90
22145;DHT22;11238;48.730;11.566;2023-02-01T11:23:19;4.20;99.90
22145;DHT22;11238;48.730;11.566;2023-02-01T11:26:21;4.20;99.90
22145;DHT22;11238;48.730;11.566;2023-02-01T11:29:10;4.20;99.90
22145;DHT22;11238;48.730;11.566;2023-02-01T11:31:36;4.10;99.90
22145;DHT22;11238;48.730;11.566;2023-02-01T11:34:14;4.10;99.90
22145;DHT22;11238;48.730;11.566;2023-02-01T11:36:41;4.00;99.90
22145;DHT22;11238;48.730;11.566;2023-02-01T11:41:59;3.90;99.90
22145;DHT22;11238;48.730;11.566;2023-02-01T11:44:37;3.90;99.90
22145;DHT22;11238;48.730;11.566;2023-02-01T11:47:27;3.90;99.90
22145;DHT22;11238;48.730;11.566;2023-02-01T11:49:58;4.00;99.90
22145;DHT22;11238;48.730;11.566;2023-02-01T12:00:42;4.50;99.90
22145;DHT22;11238;48.730;11.566;2023-02-01T12:08:19;4.60;99.90
22145;DHT22;11238;48.730;11.566;2023-02-01T12:11:07;4.60;99.90
22145;DHT22;11238;48.730;11.566;2023-02-01T12:16:52;4.30;99.90
22145;DHT22;11238;48.730;11.566;2023-02-01T12:22:11;4.10;99.90
22145;DHT22;11238;48.730;11.566;2023-02-01T12:24:44;4.10;99.90
22145;DHT22;11238;48.730;11.566;2023-02-01T12:32:54;4.40;99.90
22145;DHT22;11238;48.730;11.566;2023-02-01T12:47:13;4.70;99.90
22145;DHT22;11238;48.730;11.566;2023-02-01T12:49:58;4.70;99.90
22145;DHT22;11238;48.730;11.566;2023-02-01T12:52:37;4.70;99.90
22145;DHT22;11238;48.730;11.566;2023-02-01T12:57:49;4.80;99.90
22145;DHT22;11238;48.730;11.566;2023-02-01T13:00:57;4.80;99.90
22145;DHT22;11238;48.730;11.566;2023-02-01T13:03:59;4.80;99.90
22145;DHT22;11238;48.730;11.566;2023-02-01T13:06:36;4.80;99.90
22145;DHT22;11238;48.730;11.566;2023-02-01T13:11:39;4.90;99.90
22145;DHT22;11238;48.730;11.566;2023-02-01T13:14:37;4.80;99.90
22145;DHT22;11238;48.730;11.566;2023-02-01T13:17:15;4.80;99.90
22145;DHT22;11238;48.730;11.566;2023-02-01T13:19:47;4.90;99.90
22145;DHT22;11238;48.730;11.566;2023-02-01T13:22:21;4.80;99.90
22145;DHT22;11238;48.730;11.566;2023-02-01T13:24:57;4.80;99.90
22145;DHT22;11238;48.730;11.566;2023-02-01T13:27:28;4.70;99.90
22145;DHT22;11238;48.730;11.566;2023-02-01T13:33:13;4.60;99.90
22145;DHT22;11238;48.730;11.566;2023-02-01T13:41:32;4.40;99.90
22145;DHT22;11238;48.730;11.566;2023-02-01T13:44:05;4.40;99.90
22145;DHT22;11238;48.730;11.566;2023-02-01T13:46:46;4.40;99.90
22145;DHT22;11238;48.730;11.566;2023-02-01T13:49:24;4.40;99.90
22145;DHT22;11238;48.730;11.566;2023-02-01T13:55:51;4.50;99.90
22145;DHT22;11238;48.730;11.566;2023-02-01T13:58:28;4.50;99.90
22145;DHT22;11238;48.730;11.566;2023-02-01T14:03:58;4.50;99.90
22145;DHT22;11238;48.730;11.566;2023-02-01T14:19:21;4.60;99.90
22145;DHT22;11238;48.730;11.566;2023-02-01T14:24:51;4.70;99.90
22145;DHT22;11238;48.730;11.566;2023-02-01T14:27:23;4.70;99.90
22145;DHT22;11238;48.730;11.566;2023-02-01T14:29:52;4.70;99.90
22145;DHT22;11238;48.730;11.566;2023-02-01T14:32:26;4.70;99.90
22145;DHT22;11238;48.730;11.566;2023-02-01T14:34:59;4.70;99.90
22145;DHT22;11238;48.730;11.566;2023-02-01T14:37:29;4.70;99.90
22145;DHT22;11238;48.730;11.566;2023-02-01T14:39:59;4.70;99.90
22145;DHT22;11238;48.730;11.566;2023-02-01T15:00:53;4.70;99.90
22145;DHT22;11238;48.730;11.566;2023-02-01T15:05:58;4.60;99.90
22145;DHT22;11238;48.730;11.566;2023-02-01T15:08:36;4.60;99.90
22145;DHT22;11238;48.730;11.566;2023-02-01T15:11:06;4.70;99.90
22145;DHT22;11238;48.730;11.566;2023-02-01T15:13:34;4.70;99.90
22145;DHT22;11238;48.730;11.566;2023-02-01T15:16:14;4.70;99.90
22145;DHT22;11238;48.730;11.566;2023-02-01T15:18:41;4.70;99.90
22145;DHT22;11238;48.730;11.566;2023-02-01T15:23:43;4.70;99.90
22145;DHT22;11238;48.730;11.566;2023-02-01T15:26:13;4.70;99.90
22145;DHT22;11238;48.730;11.566;2023-02-01T15:28:49;4.80;99.90
22145;DHT22;11238;48.730;11.566;2023-02-01T15:31:37;4.80;99.90
22145;DHT22;11238;48.730;11.566;2023-02-01T15:34:04;4.80;99.90
22145;DHT22;11238;48.730;11.566;2023-02-01T15:36:30;4.80;99.90
22145;DHT22;11238;48.730;11.566;2023-02-01T15:41:38;4.80;99.90
22145;DHT22;11238;48.730;11.566;2023-02-01T15:44:15;4.70;99.90
22145;DHT22;11238;48.730;11.566;2023-02-01T15:46:45;4.70;99.90
22145;DHT22;11238;48.730;11.566;2023-02-01T15:49:37;4.80;99.90
22145;DHT22;11238;48.730;11.566;2023-02-01T15:54:53;4.70;99.90
22145;DHT22;11238;48.730;11.566;2023-02-01T15:57:23;4.60;99.90
22145;DHT22;11238;48.730;11.566;2023-02-01T16:00:00;4.70;99.90
22145;DHT22;11238;48.730;11.566;2023-02-01T16:02:44;4.70;99.90
22145;DHT22;11238;48.730;11.566;2023-02-01T16:05:38;4.60;99.90
22145;DHT22;11238;48.730;11.566;2023-02-01T16:08:17;4.60;99.90
22145;DHT22;11238;48.730;11.566;2023-02-01T16:10:47;4.60;99.90
22145;DHT22;11238;48.730;11.566;2023-02-01T16:13:15;4.60;99.90
22145;DHT22;11238;48.730;11.566;2023-02-01T16:15:42;4.60;99.90
22145;DHT22;11238;48.730;11.566;2023-02-01T16:18:08;4.60;99.90
22145;DHT22;11238;48.730;11.566;2023-02-01T16:20:36;4.60;99.90
22145;DHT22;11238;48.730;11.566;2023-02-01T16:23:03;4.60;99.90
22145;DHT22;11238;48.730;11.566;2023-02-01T16:25:29;4.60;99.90
22145;DHT22;11238;48.730;11.566;2023-02-01T16:27:56;4.60;99.90
22145;DHT22;11238;48.730;11.566;2023-02-01T16:30:22;4.60;99.90
22145;DHT22;11238;48.730;11.566;2023-02-01T16:32:55;4.60;99.90
22145;DHT22;11238;48.730;11.566;2023-02-01T16:35:56;4.60;99.90
22145;DHT22;11238;48.730;11.566;2023-02-01T16:38:18;4.70;99.90
22145;DHT22;11238;48.730;11.566;2023-02-01T16:40:47;4.60;99.90
22145;DHT22;11238;48.730;11.566;2023-02-01T16:43:24;4.70;99.90
22145;DHT22;11238;48.730;11.566;2023-02-01T16:45:52;4.60;99.90
22145;DHT22;11238;48.730;11.566;2023-02-01T16:48:22;4.60;99.90
22145;DHT22;11238;48.730;11.566;2023-02-01T16:50:51;4.60;99.90
22145;DHT22;11238;48.730;11.566;2023-02-01T16:53:19;4.60;99.90
22145;DHT22;11238;48.730;11.566;2023-02-01T16:55:45;4.70;99.90
22145;DHT22;11238;48.730;11.566;2023-02-01T16:58:13;4.70;99.90
22145;DHT22;11238;48.730;11.566;2023-02-01T17:00:39;4.80;99.90
22145;DHT22;11238;48.730;11.566;2023-02-01T17:03:05;4.80;99.90
22145;DHT22;11238;48.730;11.566;2023-02-01T17:05:32;4.70;99.90
22145;DHT22;11238;48.730;11.566;2023-02-01T17:08:06;4.70;99.90
22145;DHT22;11238;48.730;11.566;2023-02-01T17:10:33;4.60;99.90
22145;DHT22;11238;48.730;11.566;2023-02-01T17:12:58;4.70;99.90
22145;DHT22;11238;48.730;11.566;2023-02-01T17:15:28;4.60;99.90
22145;DHT22;11238;48.730;11.566;2023-02-01T17:17:55;4.60;99.90
22145;DHT22;11238;48.730;11.566;2023-02-01T17:20:23;4.60;99.90
22145;DHT22;11238;48.730;11.566;2023-02-01T17:22:50;4.70;99.90
22145;DHT22;11238;48.730;11.566;2023-02-01T17:25:17;4.70;99.90
22145;DHT22;11238;48.730;11.566;2023-02-01T17:27:44;4.70;99.90
22145;DHT22;11238;48.730;11.566;2023-02-01T17:30:11;4.70;99.90
22145;DHT22;11238;48.730;11.566;2023-02-01T17:32:37;4.70;99.90
22145;DHT22;11238;48.730;11.566;2023-02-01T17:35:05;4.60;99.90
22145;DHT22;11238;48.730;11.566;2023-02-01T17:37:34;4.70;99.90
22145;DHT22;11238;48.730;11.566;2023-02-01T17:40:01;4.70;99.90
22145;DHT22;11238;48.730;11.566;2023-02-01T17:42:28;4.70;99.90
22145;DHT22;11238;48.730;11.566;2023-02-01T17:45:02;4.80;99.90
22145;DHT22;11238;48.730;11.566;2023-02-01T17:47:36;4.70;99.90
22145;DHT22;11238;48.730;11.566;2023-02-01T17:50:03;4.70;99.90
22145;DHT22;11238;48.730;11.566;2023-02-01T17:52:29;4.80;99.90
22145;DHT22;11238;48.730;11.566;2023-02-01T17:54:55;4.80;99.90
22145;DHT22;11238;48.730;11.566;2023-02-01T17:57:21;4.70;99.90
22145;DHT22;11238;48.730;11.566;2023-02-01T17:59:47;4.70;99.90
22145;DHT22;11238;48.730;11.566;2023-02-01T18:02:21;4.70;99.90
22145;DHT22;11238;48.730;11.566;2023-02-01T18:04:47;4.70;99.90
22145;DHT22;11238;48.730;11.566;2023-02-01T18:07:14;4.80;99.90
22145;DHT22;11238;48.730;11.566;2023-02-01T18:09:40;4.70;99.90
22145;DHT22;11238;48.730;11.566;2023-02-01T18:12:20;4.70;99.90
22145;DHT22;11238;48.730;11.566;2023-02-01T18:14:46;4.70;99.90
22145;DHT22;11238;48.730;11.566;2023-02-01T18:17:12;4.80;99.90
22145;DHT22;11238;48.730;11.566;2023-02-01T18:19:38;4.90;99.90
22145;DHT22;11238;48.730;11.566;2023-02-01T18:22:04;4.90;99.90
22145;DHT22;11238;48.730;11.566;2023-02-01T18:24:30;4.80;99.90
22145;DHT22;11238;48.730;11.566;2023-02-01T18:26:59;4.90;99.90
22145;DHT22;11238;48.730;11.566;2023-02-01T18:29:25;4.80;99.90
22145;DHT22;11238;48.730;11.566;2023-02-01T18:31:50;4.80;99.90